Terminal Aerodrome Forecast
Issued by NWS

Home | Current Version | Previous Version | Text Only | Print | Product List | Glossary On
Versions: 1 2 3 4 5 6 7 8 9 10 11 12 13 14 15
000
FTUS45 KLKN 061737
TAFEKO
TAF
KEKO 061737Z 0618/0718 VRB06KT P6SM FEW050
     FM062000 26010KT P6SM -SHSN BKN040
      TEMPO 0622/0702 5SM -SN SCT020 OVC030
     FM070400 36003KT P6SM VCSH SCT040
     FM070900 VRB03KT P6SM SCT200=

USA.gov is the U.S. government's official web portal to all federal, state and local government web resources and services.